sensor_id;sensor_type;location;lat;lon;timestamp;pressure;altitude;pressure_sealevel;temperature;humidity
6833;BME280;3454;42.654;23.378;2023-11-19T00:01:32;63263.78;;;3.29;100.00
6833;BME280;3454;42.654;23.378;2023-11-19T00:03:58;63262.44;;;3.25;100.00
6833;BME280;3454;42.654;23.378;2023-11-19T00:06:23;63266.25;;;3.29;100.00
6833;BME280;3454;42.654;23.378;2023-11-19T00:08:50;63260.81;;;3.24;100.00
6833;BME280;3454;42.654;23.378;2023-11-19T00:11:16;63262.13;;;3.27;100.00
6833;BME280;3454;42.654;23.378;2023-11-19T00:13:42;63255.09;;;3.21;100.00
6833;BME280;3454;42.654;23.378;2023-11-19T00:16:08;63266.25;;;3.29;100.00
6833;BME280;3454;42.654;23.378;2023-11-19T00:18:35;63270.06;;;3.32;100.00
6833;BME280;3454;42.654;23.378;2023-11-19T00:21:01;63255.41;;;3.19;100.00
6833;BME280;3454;42.654;23.378;2023-11-19T00:23:27;63259.19;;;3.22;100.00
6833;BME280;3454;42.654;23.378;2023-11-19T00:25:53;63259.94;;;3.25;100.00
6833;BME280;3454;42.654;23.378;2023-11-19T00:28:18;63257.56;;;3.21;100.00
6833;BME280;3454;42.654;23.378;2023-11-19T00:30:44;63257.78;;;3.23;100.00
6833;BME280;3454;42.654;23.378;2023-11-19T00:33:10;63281.25;;;3.40;100.00
6833;BME280;3454;42.654;23.378;2023-11-19T00:35:35;63263.53;;;3.26;100.00
6833;BME280;3454;42.654;23.378;2023-11-19T00:38:01;63264.16;;;3.22;100.00
6833;BME280;3454;42.654;23.378;2023-11-19T00:40:28;63258.41;;;3.19;100.00
6833;BME280;3454;42.654;23.378;2023-11-19T00:42:53;63261.91;;;3.25;100.00
6833;BME280;3454;42.654;23.378;2023-11-19T00:45:19;63265.16;;;3.28;100.00
6833;BME280;3454;42.654;23.378;2023-11-19T00:47:44;63268.19;;;3.28;100.00
6833;BME280;3454;42.654;23.378;2023-11-19T00:50:10;63266.25;;;3.29;100.00
6833;BME280;3454;42.654;23.378;2023-11-19T00:52:37;63266.78;;;3.29;100.00
6833;BME280;3454;42.654;23.378;2023-11-19T00:55:03;63257.78;;;3.23;100.00
6833;BME280;3454;42.654;23.378;2023-11-19T00:57:30;63262.13;;;3.27;100.00
6833;BME280;3454;42.654;23.378;2023-11-19T00:59:57;63262.44;;;3.25;100.00
6833;BME280;3454;42.654;23.378;2023-11-19T01:02:24;63245.94;;;3.08;100.00
6833;BME280;3454;42.654;23.378;2023-11-19T01:04:49;63257.56;;;3.21;100.00
6833;BME280;3454;42.654;23.378;2023-11-19T01:07:15;63261.91;;;3.25;100.00
6833;BME280;3454;42.654;23.378;2023-11-19T01:09:44;63257.03;;;3.20;100.00
6833;BME280;3454;42.654;23.378;2023-11-19T01:12:10;63258.09;;;3.21;100.00
6833;BME280;3454;42.654;23.378;2023-11-19T01:14:36;63255.72;;;3.17;100.00
6833;BME280;3454;42.654;23.378;2023-11-19T01:17:02;63253.75;;;3.17;100.00
6833;BME280;3454;42.654;23.378;2023-11-19T01:19:27;63258.41;;;3.19;100.00
6833;BME280;3454;42.654;23.378;2023-11-19T01:21:54;63255.94;;;3.19;100.00
6833;BME280;3454;42.654;23.378;2023-11-19T01:24:19;63254.31;;;3.18;100.00
6833;BME280;3454;42.654;23.378;2023-11-19T01:26:46;63264.09;;;3.27;100.00
6833;BME280;3454;42.654;23.378;2023-11-19T01:29:13;63259.19;;;3.22;100.00
6833;BME280;3454;42.654;23.378;2023-11-19T01:31:42;63271.44;;;3.31;100.00
6833;BME280;3454;42.654;23.378;2023-11-19T01:34:07;63272.22;;;3.34;100.00
6833;BME280;3454;42.654;23.378;2023-11-19T01:36:33;63260.59;;;3.21;100.00
6833;BME280;3454;42.654;23.378;2023-11-19T01:39:00;63259.94;;;3.25;100.00
6833;BME280;3454;42.654;23.378;2023-11-19T01:41:25;63256.47;;;3.20;100.00
6833;BME280;3454;42.654;23.378;2023-11-19T01:43:51;63242.91;;;3.07;100.00
6833;BME280;3454;42.654;23.378;2023-11-19T01:46:16;63256.47;;;3.20;100.00
6833;BME280;3454;42.654;23.378;2023-11-19T01:48:44;63252.69;;;3.16;100.00
6833;BME280;3454;42.654;23.378;2023-11-19T01:51:12;63254.84;;;3.18;100.00
6833;BME280;3454;42.654;23.378;2023-11-19T01:53:38;63244.22;;;3.11;100.00
6833;BME280;3454;42.654;23.378;2023-11-19T01:56:07;63241.81;;;3.06;100.00
6833;BME280;3454;42.654;23.378;2023-11-19T01:58:36;63236.94;;;3.02;100.00
6833;BME280;3454;42.654;23.378;2023-11-19T02:01:02;63238.03;;;3.03;100.00
6833;BME280;3454;42.654;23.378;2023-11-19T02:03:31;63241.81;;;3.06;100.00
6833;BME280;3454;42.654;23.378;2023-11-19T02:05:59;63227.69;;;2.93;100.00
6833;BME280;3454;42.654;23.378;2023-11-19T02:08:24;63232.03;;;2.97;100.00
6833;BME280;3454;42.654;23.378;2023-11-19T02:10:51;63229.34;;;2.95;100.00
6833;BME280;3454;42.654;23.378;2023-11-19T02:13:18;63224.75;;;2.88;100.00
6833;BME280;3454;42.654;23.378;2023-11-19T02:15:43;63224.44;;;2.90;100.00
6833;BME280;3454;42.654;23.378;2023-11-19T02:18:24;63223.03;;;2.91;100.00
6833;BME280;3454;42.654;23.378;2023-11-19T02:20:54;63231.28;;;2.94;100.00
6833;BME280;3454;42.654;23.378;2023-11-19T02:23:20;63235.31;;;3.00;100.00
6833;BME280;3454;42.654;23.378;2023-11-19T02:28:24;63228.47;;;2.96;100.00
6833;BME280;3454;42.654;23.378;2023-11-19T02:30:49;63236.69;;;2.99;100.00
6833;BME280;3454;42.654;23.378;2023-11-19T02:33:15;63238.03;;;3.03;100.00
6833;BME280;3454;42.654;23.378;2023-11-19T02:35:41;63235.31;;;3.00;100.00
6833;BME280;3454;42.654;23.378;2023-11-19T02:38:06;63248.34;;;3.12;100.00
6833;BME280;3454;42.654;23.378;2023-11-19T02:40:32;63247.25;;;3.11;100.00
6833;BME280;3454;42.654;23.378;2023-11-19T02:42:58;63242.56;;;3.09;100.00
6833;BME280;3454;42.654;23.378;2023-11-19T02:45:25;63254.06;;;3.15;100.00
6833;BME280;3454;42.654;23.378;2023-11-19T02:47:53;63237.72;;;3.05;100.00
6833;BME280;3454;42.654;23.378;2023-11-19T02:50:20;63239.66;;;3.04;100.00
6833;BME280;3454;42.654;23.378;2023-11-19T02:52:54;63235.53;;;3.03;100.00
6833;BME280;3454;42.654;23.378;2023-11-19T02:55:21;63235.31;;;3.00;100.00
6833;BME280;3454;42.654;23.378;2023-11-19T02:57:49;63227.91;;;2.96;100.00
6833;BME280;3454;42.654;23.378;2023-11-19T03:00:16;63225.53;;;2.91;100.00
6833;BME280;3454;42.654;23.378;2023-11-19T03:02:43;63222.28;;;2.88;100.00
6833;BME280;3454;42.654;23.378;2023-11-19T03:05:16;63214.66;;;2.81;100.00
6833;BME280;3454;42.654;23.378;2023-11-19T03:07:42;63222.28;;;2.88;100.00
6833;BME280;3454;42.654;23.378;2023-11-19T03:10:09;63229.34;;;2.95;100.00
6833;BME280;3454;42.654;23.378;2023-11-19T03:12:38;63233.13;;;2.98;100.00
6833;BME280;3454;42.654;23.378;2023-11-19T03:15:04;63210.88;;;2.78;100.00
6833;BME280;3454;42.654;23.378;2023-11-19T03:17:30;63214.66;;;2.81;100.00
6833;BME280;3454;42.654;23.378;2023-11-19T03:19:56;63224.75;;;2.88;100.00
6833;BME280;3454;42.654;23.378;2023-11-19T03:22:21;63219.56;;;2.86;100.00
6833;BME280;3454;42.654;23.378;2023-11-19T03:24:47;63222.50;;;2.91;100.00
6833;BME280;3454;42.654;23.378;2023-11-19T03:27:15;63228.00;;;2.91;100.00
6833;BME280;3454;42.654;23.378;2023-11-19T03:29:41;63235.00;;;3.02;100.00
6833;BME280;3454;42.654;23.378;2023-11-19T03:32:06;63230.97;;;2.96;100.00
6833;BME280;3454;42.654;23.378;2023-11-19T03:34:32;63226.31;;;2.94;100.00
6833;BME280;3454;42.654;23.378;2023-11-19T03:36:57;63217.94;;;2.84;100.00
6833;BME280;3454;42.654;23.378;2023-11-19T03:39:23;63212.28;;;2.77;100.00
6833;BME280;3454;42.654;23.378;2023-11-19T03:41:50;63212.41;;;2.84;100.00
6833;BME280;3454;42.654;23.378;2023-11-19T03:44:16;63215.75;;;2.82;100.00
6833;BME280;3454;42.654;23.378;2023-11-19T03:46:42;63221.97;;;2.90;100.00
6833;BME280;3454;42.654;23.378;2023-11-19T03:49:07;63227.16;;;2.93;100.00
6833;BME280;3454;42.654;23.378;2023-11-19T03:51:33;63215.75;;;2.82;100.00
6833;BME280;3454;42.654;23.378;2023-11-19T03:54:00;63217.94;;;2.84;100.00
6833;BME280;3454;42.654;23.378;2023-11-19T03:56:26;63219.31;;;2.83;100.00
6833;BME280;3454;42.654;23.378;2023-11-19T03:58:52;63218.16;;;2.87;100.00
6833;BME280;3454;42.654;23.378;2023-11-19T04:01:18;63226.94;;;2.90;100.00
6833;BME280;3454;42.654;23.378;2023-11-19T04:03:43;63233.75;;;2.94;100.00
6833;BME280;3454;42.654;23.378;2023-11-19T04:06:09;63220.09;;;2.86;100.00
6833;BME280;3454;42.654;23.378;2023-11-19T04:08:35;63220.09;;;2.86;100.00
6833;BME280;3454;42.654;23.378;2023-11-19T04:11:04;63215.22;;;2.82;100.00
6833;BME280;3454;42.654;23.378;2023-11-19T04:13:30;63209.25;;;2.76;100.00
6833;BME280;3454;42.654;23.378;2023-11-19T04:15:56;63209.47;;;2.79;100.00
6833;BME280;3454;42.654;23.378;2023-11-19T04:18:22;63222.28;;;2.88;100.00
6833;BME280;3454;42.654;23.378;2023-11-19T04:20:47;63215.75;;;2.82;100.00
6833;BME280;3454;42.654;23.378;2023-11-19T04:23:12;63208.94;;;2.78;100.00
6833;BME280;3454;42.654;23.378;2023-11-19T04:25:38;63215.22;;;2.82;100.00
6833;BME280;3454;42.654;23.378;2023-11-19T04:28:03;63204.34;;;2.72;100.00
6833;BME280;3454;42.654;23.378;2023-11-19T04:30:29;63214.66;;;2.81;100.00
6833;BME280;3454;42.654;23.378;2023-11-19T04:32:57;63215.75;;;2.82;100.00
6833;BME280;3454;42.654;23.378;2023-11-19T04:35:22;63217.94;;;2.84;100.00
6833;BME280;3454;42.654;23.378;2023-11-19T04:37:48;63209.78;;;2.77;100.00
6833;BME280;3454;42.654;23.378;2023-11-19T04:40:13;63215.75;;;2.82;100.00
6833;BME280;3454;42.654;23.378;2023-11-19T04:42:39;63217.38;;;2.84;100.00
6833;BME280;3454;42.654;23.378;2023-11-19T04:45:06;63212.50;;;2.79;100.00
6833;BME280;3454;42.654;23.378;2023-11-19T04:47:33;63212.81;;;2.77;100.00
6833;BME280;3454;42.654;23.378;2023-11-19T04:50:00;63213.59;;;2.80;100.00
6833;BME280;3454;42.654;23.378;2023-11-19T04:52:25;63214.66;;;2.81;100.00
6833;BME280;3454;42.654;23.378;2023-11-19T04:54:51;63208.94;;;2.78;100.00
6833;BME280;3454;42.654;23.378;2023-11-19T04:57:17;63216.31;;;2.83;100.00
6833;BME280;3454;42.654;23.378;2023-11-19T04:59:42;63214.66;;;2.81;100.00
6833;BME280;3454;42.654;23.378;2023-11-19T05:02:08;63214.66;;;2.81;100.00
6833;BME280;3454;42.654;23.378;2023-11-19T05:04:35;63212.19;;;2.81;100.00
6833;BME280;3454;42.654;23.378;2023-11-19T05:07:00;63210.00;;;2.79;100.00
6833;BME280;3454;42.654;23.378;2023-11-19T05:09:26;63215.22;;;2.82;100.00
6833;BME280;3454;42.654;23.378;2023-11-19T05:11:52;63223.34;;;2.89;100.00
6833;BME280;3454;42.654;23.378;2023-11-19T05:14:17;63214.91;;;2.84;100.00
6833;BME280;3454;42.654;23.378;2023-11-19T05:16:45;63210.56;;;2.80;100.00
6833;BME280;3454;42.654;23.378;2023-11-19T05:19:11;63218.69;;;2.87;100.00
6833;BME280;3454;42.654;23.378;2023-11-19T05:21:37;63216.31;;;2.83;100.00
6833;BME280;3454;42.654;23.378;2023-11-19T05:24:03;63207.00;;;2.79;100.00
6833;BME280;3454;42.654;23.378;2023-11-19T05:26:31;63213.59;;;2.80;100.00
6833;BME280;3454;42.654;23.378;2023-11-19T05:28:56;63213.03;;;2.80;100.00
6833;BME280;3454;42.654;23.378;2023-11-19T05:31:22;63216.50;;;2.85;100.00
6833;BME280;3454;42.654;23.378;2023-11-19T05:33:48;63207.31;;;2.77;100.00
6833;BME280;3454;42.654;23.378;2023-11-19T05:36:13;63204.91;;;2.72;100.00
6833;BME280;3454;42.654;23.378;2023-11-19T05:38:39;63204.91;;;2.72;100.00
6833;BME280;3454;42.654;23.378;2023-11-19T05:41:11;63222.28;;;2.88;100.00
6833;BME280;3454;42.654;23.378;2023-11-19T05:43:37;63223.59;;;2.92;99.49
6833;BME280;3454;42.654;23.378;2023-11-19T05:46:05;63222.03;;;2.86;100.00
6833;BME280;3454;42.654;23.378;2023-11-19T05:48:32;63213.03;;;2.80;100.00
6833;BME280;3454;42.654;23.378;2023-11-19T05:50:58;63207.63;;;2.75;100.00
6833;BME280;3454;42.654;23.378;2023-11-19T05:53:24;63212.50;;;2.79;100.00
6833;BME280;3454;42.654;23.378;2023-11-19T05:55:50;63232.13;;;2.93;100.00
6833;BME280;3454;42.654;23.378;2023-11-19T05:58:25;63222.81;;;2.89;99.85
6833;BME280;3454;42.654;23.378;2023-11-19T06:00:57;63207.84;;;2.77;100.00
6833;BME280;3454;42.654;23.378;2023-11-19T06:03:23;63203.81;;;2.71;100.00
6833;BME280;3454;42.654;23.378;2023-11-19T06:05:49;63200.56;;;2.68;100.00
6833;BME280;3454;42.654;23.378;2023-11-19T06:08:15;63211.19;;;2.76;100.00
6833;BME280;3454;42.654;23.378;2023-11-19T06:10:42;63200.63;;;2.64;100.00
6833;BME280;3454;42.654;23.378;2023-11-19T06:13:08;63199.47;;;2.67;100.00
6833;BME280;3454;42.654;23.378;2023-11-19T06:15:36;63202.50;;;2.68;100.00
6833;BME280;3454;42.654;23.378;2023-11-19T06:18:02;63195.44;;;2.61;100.00
6833;BME280;3454;42.654;23.378;2023-11-19T06:20:29;63201.63;;;2.69;100.00
6833;BME280;3454;42.654;23.378;2023-11-19T06:22:56;63201.94;;;2.67;100.00
6833;BME280;3454;42.654;23.378;2023-11-19T06:25:22;63202.19;;;2.70;100.00
6833;BME280;3454;42.654;23.378;2023-11-19T06:27:49;63197.84;;;2.66;100.00
6833;BME280;3454;42.654;23.378;2023-11-19T06:30:15;63198.38;;;2.66;100.00
6833;BME280;3454;42.654;23.378;2023-11-19T06:32:40;63209.25;;;2.76;100.00
6833;BME280;3454;42.654;23.378;2023-11-19T06:35:06;63195.66;;;2.64;100.00
6833;BME280;3454;42.654;23.378;2023-11-19T06:37:32;63194.81;;;2.65;100.00
6833;BME280;3454;42.654;23.378;2023-11-19T06:39:57;63190.03;;;2.56;100.00
6833;BME280;3454;42.654;23.378;2023-11-19T06:42:23;63197.84;;;2.66;100.00
6833;BME280;3454;42.654;23.378;2023-11-19T06:44:48;63193.50;;;2.62;100.00
6833;BME280;3454;42.654;23.378;2023-11-19T06:47:14;63210.31;;;2.77;100.00
6833;BME280;3454;42.654;23.378;2023-11-19T06:49:40;63207.69;;;2.70;100.00
6833;BME280;3454;42.654;23.378;2023-11-19T06:52:05;63208.16;;;2.75;100.00
6833;BME280;3454;42.654;23.378;2023-11-19T06:54:30;63210.88;;;2.78;100.00
6833;BME280;3454;42.654;23.378;2023-11-19T06:56:56;63187.75;;;2.59;100.00
6833;BME280;3454;42.654;23.378;2023-11-19T06:59:23;63201.31;;;2.71;100.00
6833;BME280;3454;42.654;23.378;2023-11-19T07:01:49;63201.88;;;2.72;100.00
6833;BME280;3454;42.654;23.378;2023-11-19T07:04:14;63190.53;;;2.56;100.00
6833;BME280;3454;42.654;23.378;2023-11-19T07:06:39;63186.44;;;2.55;100.00
6833;BME280;3454;42.654;23.378;2023-11-19T07:09:08;63188.59;;;2.57;100.00
6833;BME280;3454;42.654;23.378;2023-11-19T07:11:40;63190.78;;;2.59;100.00
6833;BME280;3454;42.654;23.378;2023-11-19T07:14:07;63194.03;;;2.62;99.88
6833;BME280;3454;42.654;23.378;2023-11-19T07:16:34;63189.16;;;2.58;100.00
6833;BME280;3454;42.654;23.378;2023-11-19T07:19:00;63205.97;;;2.73;99.65
6833;BME280;3454;42.654;23.378;2023-11-19T07:21:26;63215.75;;;2.82;99.70
6833;BME280;3454;42.654;23.378;2023-11-19T07:23:57;63207.63;;;2.75;98.39
6833;BME280;3454;42.654;23.378;2023-11-19T07:26:23;63201.09;;;2.69;98.53
6833;BME280;3454;42.654;23.378;2023-11-19T07:28:51;63195.97;;;2.62;99.10
6833;BME280;3454;42.654;23.378;2023-11-19T07:31:17;63183.72;;;2.52;99.66
6833;BME280;3454;42.654;23.378;2023-11-19T07:33:46;63186.75;;;2.53;99.79
6833;BME280;3454;42.654;23.378;2023-11-19T07:36:12;63188.59;;;2.57;99.27
6833;BME280;3454;42.654;23.378;2023-11-19T07:38:37;63197.59;;;2.63;99.28
6833;BME280;3454;42.654;23.378;2023-11-19T07:41:04;63206.53;;;2.74;99.14
6833;BME280;3454;42.654;23.378;2023-11-19T07:43:31;63196.66;;;2.69;97.05
6833;BME280;3454;42.654;23.378;2023-11-19T07:45:57;63192.94;;;2.61;97.96
6833;BME280;3454;42.654;23.378;2023-11-19T07:48:24;63202.19;;;2.70;97.44
6833;BME280;3454;42.654;23.378;2023-11-19T07:50:50;63213.81;;;2.83;96.64
6833;BME280;3454;42.654;23.378;2023-11-19T07:53:19;63199.69;;;2.70;97.54
6833;BME280;3454;42.654;23.378;2023-11-19T07:55:45;63209.25;;;2.76;97.24
6833;BME280;3454;42.654;23.378;2023-11-19T07:58:11;63209.25;;;2.76;96.22
6833;BME280;3454;42.654;23.378;2023-11-19T08:00:37;63204.91;;;2.72;97.59
6833;BME280;3454;42.654;23.378;2023-11-19T08:03:04;63207.63;;;2.75;96.95
6833;BME280;3454;42.654;23.378;2023-11-19T08:05:33;63209.25;;;2.76;96.24
6833;BME280;3454;42.654;23.378;2023-11-19T08:07:58;63211.97;;;2.79;94.45
6833;BME280;3454;42.654;23.378;2023-11-19T08:10:24;63214.66;;;2.81;96.63
6833;BME280;3454;42.654;23.378;2023-11-19T08:12:49;63228.25;;;2.94;94.77
6833;BME280;3454;42.654;23.378;2023-11-19T08:15:15;63229.88;;;2.95;94.45
6833;BME280;3454;42.654;23.378;2023-11-19T08:17:41;63230.97;;;2.96;95.43
6833;BME280;3454;42.654;23.378;2023-11-19T08:20:09;63260.81;;;3.24;92.12
6833;BME280;3454;42.654;23.378;2023-11-19T08:22:39;63266.78;;;3.29;89.90
6833;BME280;3454;42.654;23.378;2023-11-19T08:25:05;63319.81;;;3.76;87.87
6833;BME280;3454;42.654;23.378;2023-11-19T08:27:31;63321.91;;;3.83;87.35
6833;BME280;3454;42.654;23.378;2023-11-19T08:29:57;63370.03;;;4.25;84.76
6833;BME280;3454;42.654;23.378;2023-11-19T08:32:24;63417.03;;;4.71;82.18
6833;BME280;3454;42.654;23.378;2023-11-19T08:34:50;63425.53;;;4.76;80.64
6833;BME280;3454;42.654;23.378;2023-11-19T08:37:16;63438.03;;;4.88;80.78
6833;BME280;3454;42.654;23.378;2023-11-19T08:39:48;63463.84;;;5.14;78.91
6833;BME280;3454;42.654;23.378;2023-11-19T08:42:15;63480.50;;;5.27;78.66
6833;BME280;3454;42.654;23.378;2023-11-19T08:44:41;63440.22;;;4.90;78.09
6833;BME280;3454;42.654;23.378;2023-11-19T08:47:11;63466.31;;;5.14;76.97
6833;BME280;3454;42.654;23.378;2023-11-19T08:49:37;63443.69;;;4.95;77.04
6833;BME280;3454;42.654;23.378;2023-11-19T08:52:04;63412.16;;;4.66;79.24
6833;BME280;3454;42.654;23.378;2023-11-19T08:54:30;63447.28;;;4.96;78.89
6833;BME280;3454;42.654;23.378;2023-11-19T08:56:55;63382.22;;;4.39;80.65
6833;BME280;3454;42.654;23.378;2023-11-19T08:59:21;63324.94;;;3.83;82.75
6833;BME280;3454;42.654;23.378;2023-11-19T09:01:47;63338.53;;;3.96;84.71
6833;BME280;3454;42.654;23.378;2023-11-19T09:04:12;63320.78;;;3.82;83.95
6833;BME280;3454;42.654;23.378;2023-11-19T09:06:38;63315.91;;;3.77;84.11
6833;BME280;3454;42.654;23.378;2023-11-19T09:09:03;63308.31;;;3.70;83.98
6833;BME280;3454;42.654;23.378;2023-11-19T09:11:30;63301.34;;;3.59;85.36
6833;BME280;3454;42.654;23.378;2023-11-19T09:13:56;63318.94;;;3.78;84.45
6833;BME280;3454;42.654;23.378;2023-11-19T09:16:22;63396.69;;;4.50;80.97
6833;BME280;3454;42.654;23.378;2023-11-19T09:18:47;63422.47;;;4.76;79.64
6833;BME280;3454;42.654;23.378;2023-11-19T09:21:13;63406.78;;;4.57;81.07
6833;BME280;3454;42.654;23.378;2023-11-19T09:23:39;63356.69;;;4.15;81.83
6833;BME280;3454;42.654;23.378;2023-11-19T09:26:06;63310.47;;;3.72;84.10
6833;BME280;3454;42.654;23.378;2023-11-19T09:28:32;63304.81;;;3.65;85.11
6833;BME280;3454;42.654;23.378;2023-11-19T09:30:58;63307.53;;;3.67;84.94
6833;BME280;3454;42.654;23.378;2023-11-19T09:33:24;63303.19;;;3.63;84.83
6833;BME280;3454;42.654;23.378;2023-11-19T09:35:50;63312.41;;;3.72;84.92
6833;BME280;3454;42.654;23.378;2023-11-19T09:38:16;63332.84;;;3.88;84.19
6833;BME280;3454;42.654;23.378;2023-11-19T09:40:42;63290.47;;;3.49;85.02
6833;BME280;3454;42.654;23.378;2023-11-19T09:43:07;63337.44;;;3.95;84.73
6833;BME280;3454;42.654;23.378;2023-11-19T09:45:49;63444.56;;;4.94;78.92
6833;BME280;3454;42.654;23.378;2023-11-19T09:48:18;63529.47;;;5.72;74.46
6833;BME280;3454;42.654;23.378;2023-11-19T09:50:47;63522.06;;;5.68;73.14
6833;BME280;3454;42.654;23.378;2023-11-19T09:53:14;63467.44;;;5.15;73.70
6833;BME280;3454;42.654;23.378;2023-11-19T09:55:40;63454.34;;;5.03;74.73
6833;BME280;3454;42.654;23.378;2023-11-19T09:58:07;63440.75;;;4.90;75.67
6833;BME280;3454;42.654;23.378;2023-11-19T10:00:33;63471.78;;;5.19;76.00
6833;BME280;3454;42.654;23.378;2023-11-19T10:03:00;63481.56;;;5.28;74.43
6833;BME280;3454;42.654;23.378;2023-11-19T10:05:26;63490.81;;;5.37;73.87
6833;BME280;3454;42.654;23.378;2023-11-19T10:07:52;63546.06;;;5.90;71.89
6833;BME280;3454;42.654;23.378;2023-11-19T10:10:17;63557.50;;;6.01;71.01
6833;BME280;3454;42.654;23.378;2023-11-19T10:12:46;63570.03;;;6.12;70.45
6833;BME280;3454;42.654;23.378;2023-11-19T10:15:21;63602.19;;;6.42;69.55
6833;BME280;3454;42.654;23.378;2023-11-19T10:17:51;63551.28;;;5.92;70.78
6833;BME280;3454;42.654;23.378;2023-11-19T10:20:17;63607.84;;;6.49;70.43
6833;BME280;3454;42.654;23.378;2023-11-19T10:22:43;63548.22;;;5.92;71.24
6833;BME280;3454;42.654;23.378;2023-11-19T10:25:26;63518.03;;;5.62;71.22
6833;BME280;3454;42.654;23.378;2023-11-19T10:27:53;63515.84;;;5.60;70.89
6833;BME280;3454;42.654;23.378;2023-11-19T10:30:26;63536.00;;;5.78;71.20
6833;BME280;3454;42.654;23.378;2023-11-19T10:33:12;63586.38;;;6.27;68.95
6833;BME280;3454;42.654;23.378;2023-11-19T10:35:55;63595.41;;;6.33;67.43
6833;BME280;3454;42.654;23.378;2023-11-19T10:38:30;63579.28;;;6.21;68.16
6833;BME280;3454;42.654;23.378;2023-11-19T10:40:56;63568.38;;;6.11;69.30
6833;BME280;3454;42.654;23.378;2023-11-19T10:43:22;63601.94;;;6.39;69.58
6833;BME280;3454;42.654;23.378;2023-11-19T10:45:48;63573.06;;;6.13;69.08
6833;BME280;3454;42.654;23.378;2023-11-19T10:48:14;63578.53;;;6.18;69.66
6833;BME280;3454;42.654;23.378;2023-11-19T10:50:41;63653.72;;;6.87;68.40
6833;BME280;3454;42.654;23.378;2023-11-19T10:53:09;63631.38;;;6.66;66.82
6833;BME280;3454;42.654;23.378;2023-11-19T10:55:38;63602.94;;;6.45;66.94
6833;BME280;3454;42.654;23.378;2023-11-19T10:58:10;63583.97;;;6.23;68.43
6833;BME280;3454;42.654;23.378;2023-11-19T11:00:51;63585.28;;;6.26;67.47
6833;BME280;3454;42.654;23.378;2023-11-19T11:03:18;63579.28;;;6.21;69.04
6833;BME280;3454;42.654;23.378;2023-11-19T11:05:46;63585.50;;;6.29;68.06
6833;BME280;3454;42.654;23.378;2023-11-19T11:08:13;63590.72;;;6.31;68.84
6833;BME280;3454;42.654;23.378;2023-11-19T11:13:13;63633.56;;;6.68;66.84
6833;BME280;3454;42.654;23.378;2023-11-19T11:15:39;63690.16;;;7.25;65.81
6833;BME280;3454;42.654;23.378;2023-11-19T11:18:08;63680.13;;;7.14;65.40
6833;BME280;3454;42.654;23.378;2023-11-19T11:20:35;63631.06;;;6.68;65.31
6833;BME280;3454;42.654;23.378;2023-11-19T11:28:46;63552.91;;;5.94;67.78
6833;BME280;3454;42.654;23.378;2023-11-19T11:31:54;63593.22;;;6.31;66.78
6833;BME280;3454;42.654;23.378;2023-11-19T11:39:29;63626.16;;;6.64;65.14
6833;BME280;3454;42.654;23.378;2023-11-19T11:45:08;63658.97;;;6.90;63.93
6833;BME280;3454;42.654;23.378;2023-11-19T11:50:15;63652.09;;;6.86;65.16
6833;BME280;3454;42.654;23.378;2023-11-19T11:57:50;63660.50;;;6.96;63.48
6833;BME280;3454;42.654;23.378;2023-11-19T12:00:26;63718.84;;;7.49;63.96
6833;BME280;3454;42.654;23.378;2023-11-19T12:03:01;63777.56;;;8.01;62.04
6833;BME280;3454;42.654;23.378;2023-11-19T12:05:27;63803.47;;;8.27;61.61
6833;BME280;3454;42.654;23.378;2023-11-19T12:07:57;63739.81;;;7.71;60.18
6833;BME280;3454;42.654;23.378;2023-11-19T12:10:25;63742.53;;;7.74;61.28
6833;BME280;3454;42.654;23.378;2023-11-19T12:12:58;63844.09;;;8.67;61.31
6833;BME280;3454;42.654;23.378;2023-11-19T12:15:24;63820.16;;;8.40;58.76
6833;BME280;3454;42.654;23.378;2023-11-19T12:17:51;63757.59;;;7.85;59.79
6833;BME280;3454;42.654;23.378;2023-11-19T12:20:19;63808.59;;;8.34;60.22
6833;BME280;3454;42.654;23.378;2023-11-19T12:22:46;63870.97;;;8.87;58.12
6833;BME280;3454;42.654;23.378;2023-11-19T12:25:15;63895.25;;;9.12;58.44
6833;BME280;3454;42.654;23.378;2023-11-19T12:27:49;63813.63;;;8.34;58.90
6833;BME280;3454;42.654;23.378;2023-11-19T12:30:33;63866.06;;;8.83;59.63
6833;BME280;3454;42.654;23.378;2023-11-19T12:32:58;63912.16;;;9.27;56.58
6833;BME280;3454;42.654;23.378;2023-11-19T12:35:24;63932.41;;;9.46;56.12
6833;BME280;3454;42.654;23.378;2023-11-19T12:37:51;63937.88;;;9.51;55.85
6833;BME280;3454;42.654;23.378;2023-11-19T12:42:56;63910.53;;;9.26;56.03
6833;BME280;3454;42.654;23.378;2023-11-19T12:45:22;63962.78;;;9.72;55.81
6833;BME280;3454;42.654;23.378;2023-11-19T12:47:49;63891.63;;;9.11;56.99
6833;BME280;3454;42.654;23.378;2023-11-19T12:50:17;63919.28;;;9.34;58.16
6833;BME280;3454;42.654;23.378;2023-11-19T12:52:55;63919.84;;;9.35;56.84
6833;BME280;3454;42.654;23.378;2023-11-19T12:55:30;63922.56;;;9.37;56.63
6833;BME280;3454;42.654;23.378;2023-11-19T12:58:03;63891.97;;;9.09;57.66
6833;BME280;3454;42.654;23.378;2023-11-19T13:00:30;63865.53;;;8.82;58.85
6833;BME280;3454;42.654;23.378;2023-11-19T13:02:56;63875.56;;;8.94;57.91
6833;BME280;3454;42.654;23.378;2023-11-19T13:05:27;63805.09;;;8.29;58.42
6833;BME280;3454;42.654;23.378;2023-11-19T13:08:07;63859.16;;;8.79;59.70
6833;BME280;3454;42.654;23.378;2023-11-19T13:13:15;63852.63;;;8.73;59.74
6833;BME280;3454;42.654;23.378;2023-11-19T13:15:40;63867.16;;;8.84;59.32
6833;BME280;3454;42.654;23.378;2023-11-19T13:18:06;64161.41;;;11.59;100.00
6833;BME280;3454;42.654;23.378;2023-11-19T13:20:32;64301.53;;;12.85;100.00
6833;BME280;3454;42.654;23.378;2023-11-19T13:23:02;64282.56;;;12.70;64.60
6833;BME280;3454;42.654;23.378;2023-11-19T13:25:28;64304.81;;;12.88;65.81
6833;BME280;3454;42.654;23.378;2023-11-19T13:27:54;64212.16;;;12.03;63.23
6833;BME280;3454;42.654;23.378;2023-11-19T13:30:21;64144.19;;;11.41;58.22
6833;BME280;3454;42.654;23.378;2023-11-19T13:32:48;64219.06;;;12.07;66.34
6833;BME280;3454;42.654;23.378;2023-11-19T13:35:13;64233.31;;;12.20;65.58
6833;BME280;3454;42.654;23.378;2023-11-19T13:37:39;64272.44;;;12.58;69.75
6833;BME280;3454;42.654;23.378;2023-11-19T13:40:09;64300.09;;;12.86;62.59
6833;BME280;3454;42.654;23.378;2023-11-19T13:42:38;64286.94;;;12.74;56.52
6833;BME280;3454;42.654;23.378;2023-11-19T13:45:10;64326.22;;;13.08;60.39
6833;BME280;3454;42.654;23.378;2023-11-19T13:47:43;64255.13;;;12.45;66.22